createdAt,value
2019-03-20T00:02:06.939Z,101869.46
2019-03-20T00:04:37.401Z,101873.90
2019-03-20T00:07:07.971Z,101867.12
2019-03-20T00:09:38.835Z,101876.08
2019-03-20T00:12:09.908Z,101879.83
2019-03-20T00:14:40.460Z,101879.67
2019-03-20T00:17:10.869Z,101877.39
2019-03-20T00:19:41.671Z,101878.61
2019-03-20T00:22:12.081Z,101876.42
2019-03-20T00:24:43.246Z,101869.02
2019-03-20T00:27:14.402Z,101865.67
2019-03-20T00:29:44.890Z,101866.92
2019-03-20T00:32:15.912Z,101871.00
2019-03-20T00:34:46.389Z,101872.15
2019-03-20T00:37:16.741Z,101870.59
2019-03-20T00:39:52.454Z,101863.76
2019-03-20T00:42:23.777Z,101862.98
2019-03-20T00:44:56.971Z,101867.56
2019-03-20T00:47:28.187Z,101866.48
2019-03-20T00:49:59.175Z,101869.35
2019-03-20T00:52:30.580Z,101869.92
2019-03-20T00:55:04.746Z,101873.63
2019-03-20T00:57:35.326Z,101875.80
2019-03-20T01:00:07.102Z,101872.05
2019-03-20T01:02:37.481Z,101873.92
2019-03-20T01:05:12.596Z,101870.16
2019-03-20T01:07:40.272Z,101868.11
2019-03-20T01:10:13.682Z,101865.70
2019-03-20T01:12:45.226Z,101870.22
2019-03-20T01:15:16.502Z,101863.84
2019-03-20T01:17:47.208Z,101871.33
2019-03-20T01:20:23.540Z,101870.17
2019-03-20T01:22:55.157Z,101866.45
2019-03-20T01:25:25.452Z,101867.51
2019-03-20T01:27:58.368Z,101865.84
2019-03-20T01:30:33.025Z,101868.38
2019-03-20T01:33:05.934Z,101865.80
2019-03-20T01:35:37.627Z,101874.55
2019-03-20T01:38:08.349Z,101870.70
2019-03-20T01:40:40.604Z,101872.01
2019-03-20T01:43:12.173Z,101878.57
2019-03-20T01:45:42.898Z,101873.89
2019-03-20T01:48:14.490Z,101875.48
2019-03-20T01:50:44.755Z,101869.87
2019-03-20T01:53:15.809Z,101874.73
2019-03-20T01:55:46.048Z,101877.41
2019-03-20T01:59:07.205Z,101876.61
2019-03-20T02:06:51.171Z,101885.34
2019-03-20T02:09:29.193Z,101882.34
2019-03-20T02:12:01.039Z,101884.59
2019-03-20T02:14:31.197Z,101891.65
2019-03-20T02:17:02.706Z,101895.30
2019-03-20T02:19:33.158Z,101888.91
2019-03-20T02:22:04.597Z,101892.89
2019-03-20T02:24:35.349Z,101895.63
2019-03-20T02:27:06.237Z,101885.23
2019-03-20T02:29:36.620Z,101892.19
2019-03-20T02:32:07.119Z,101894.36
2019-03-20T02:34:38.143Z,101893.98
2019-03-20T02:37:08.401Z,101893.12
2019-03-20T02:39:39.441Z,101893.16
2019-03-20T02:42:09.821Z,101900.11
2019-03-20T02:44:40.448Z,101904.30
2019-03-20T02:47:10.999Z,101892.98
2019-03-20T02:49:41.948Z,101903.80
2019-03-20T02:52:12.303Z,101899.95
2019-03-20T02:54:43.167Z,101896.84
2019-03-20T02:57:13.497Z,101900.65
2019-03-20T02:59:44.451Z,101905.47
2019-03-20T03:02:20.143Z,101903.33
2019-03-20T03:04:57.842Z,101909.55
2019-03-20T03:07:35.420Z,101911.20
2019-03-20T03:10:13.899Z,101915.09
2019-03-20T03:12:44.529Z,101921.02
2019-03-20T03:15:15.112Z,101918.66
2019-03-20T03:17:45.669Z,101915.09
2019-03-20T03:20:17.309Z,101921.77
2019-03-20T03:22:47.569Z,101925.36
2019-03-20T03:25:18.021Z,101918.14
2019-03-20T03:27:54.153Z,101918.63
2019-03-20T03:30:24.642Z,101918.23
2019-03-20T03:32:55.899Z,101918.37
2019-03-20T03:35:26.429Z,101920.59
2019-03-20T03:37:57.942Z,101921.07
2019-03-20T03:40:29.427Z,101925.47
2019-03-20T03:43:00.080Z,101931.13
2019-03-20T03:45:30.955Z,101926.02
2019-03-20T03:48:02.347Z,101930.83
2019-03-20T03:50:32.923Z,101930.45
2019-03-20T03:53:03.734Z,101933.94
2019-03-20T03:55:34.304Z,101935.25
2019-03-20T03:58:04.741Z,101933.91
2019-03-20T04:00:35.513Z,101935.59
2019-03-20T04:03:07.107Z,101941.47
2019-03-20T04:05:37.495Z,101940.29
2019-03-20T04:08:07.975Z,101942.06
2019-03-20T04:10:40.472Z,101942.62
2019-03-20T04:13:10.715Z,101948.02
2019-03-20T04:15:41.701Z,101940.99
2019-03-20T04:18:11.987Z,101939.17
2019-03-20T04:20:49.466Z,101938.22
2019-03-20T04:23:19.848Z,101947.48
2019-03-20T04:25:50.004Z,101949.16
2019-03-20T04:28:20.444Z,101949.61
2019-03-20T04:30:51.513Z,101956.44
2019-03-20T04:33:22.073Z,101959.64
2019-03-20T04:35:53.276Z,101959.42
2019-03-20T04:38:25.799Z,101958.23
2019-03-20T04:41:03.292Z,101963.39
2019-03-20T04:43:34.207Z,101954.72
2019-03-20T04:46:04.566Z,101963.50
2019-03-20T04:48:34.972Z,101967.02
2019-03-20T04:51:05.953Z,101960.52
2019-03-20T04:53:37.732Z,101959.67
2019-03-20T04:56:09.957Z,101961.83
2019-03-20T04:58:43.564Z,101959.67
2019-03-20T05:01:14.696Z,101952.69
2019-03-20T05:03:45.116Z,101958.30
2019-03-20T05:06:15.757Z,101962.68
2019-03-20T05:08:47.264Z,101958.38
2019-03-20T05:11:18.641Z,101968.81
2019-03-20T05:13:49.545Z,101970.07
2019-03-20T05:16:20.096Z,101971.47
2019-03-20T05:18:50.512Z,101975.34
2019-03-20T05:21:23.730Z,101977.47
2019-03-20T05:23:57.053Z,101981.64
2019-03-20T05:26:27.492Z,101974.67
2019-03-20T05:28:57.654Z,101975.73
2019-03-20T05:31:28.905Z,101983.63
2019-03-20T05:33:59.167Z,101973.03
2019-03-20T05:36:30.684Z,101980.89
2019-03-20T05:39:00.839Z,101980.17
2019-03-20T05:41:31.658Z,101976.88
2019-03-20T05:44:02.321Z,101983.69
2019-03-20T05:46:32.688Z,101992.63
2019-03-20T05:49:05.075Z,101997.28
2019-03-20T05:51:37.539Z,101990.34
2019-03-20T05:54:09.917Z,101994.38
2019-03-20T05:56:41.944Z,101990.94
2019-03-20T05:59:12.772Z,101990.56
2019-03-20T06:01:44.863Z,101988.43
2019-03-20T06:04:15.285Z,101994.61
2019-03-20T06:06:45.695Z,101992.21
2019-03-20T06:09:16.158Z,101992.73
2019-03-20T06:11:47.779Z,102000.47
2019-03-20T06:14:18.186Z,101990.84
2019-03-20T06:16:48.451Z,101995.13
2019-03-20T06:19:18.816Z,101991.00
2019-03-20T06:21:49.134Z,101992.53
2019-03-20T06:24:19.471Z,101993.98
2019-03-20T06:26:50.353Z,101999.23
2019-03-20T06:29:20.695Z,102003.31
2019-03-20T06:31:51.304Z,102009.69
2019-03-20T06:34:21.522Z,102005.27
2019-03-20T06:36:52.206Z,102005.92
2019-03-20T06:39:22.651Z,102007.03
2019-03-20T06:41:54.649Z,102009.14
2019-03-20T06:44:28.887Z,102018.62
2019-03-20T06:46:59.532Z,102024.57
2019-03-20T06:49:30.381Z,102022.49
2019-03-20T06:52:00.636Z,102027.77
2019-03-20T06:54:36.126Z,102013.26
2019-03-20T06:57:17.973Z,102013.23
2019-03-20T07:00:30.993Z,102019.57
2019-03-20T07:03:03.599Z,102017.28
2019-03-20T07:06:06.612Z,102019.02
2019-03-20T07:08:40.655Z,102020.09
2019-03-20T07:11:29.394Z,102021.98
2019-03-20T07:13:59.805Z,102019.08
2019-03-20T07:16:30.481Z,102022.72
2019-03-20T07:19:04.051Z,102013.92
2019-03-20T07:21:34.398Z,102022.77
2019-03-20T07:24:07.315Z,102020.48
2019-03-20T07:26:40.225Z,102027.41
2019-03-20T07:29:10.765Z,102027.53
2019-03-20T07:31:41.521Z,102034.16
2019-03-20T07:34:13.144Z,102038.61
2019-03-20T07:36:43.429Z,102039.27
2019-03-20T07:39:14.641Z,102035.93
2019-03-20T07:41:45.082Z,102042.25
2019-03-20T07:44:16.924Z,102040.05
2019-03-20T07:46:47.625Z,102048.11
2019-03-20T07:49:18.008Z,102038.55
2019-03-20T07:51:48.638Z,102042.58
2019-03-20T07:54:20.685Z,102045.26
2019-03-20T07:56:51.970Z,102055.39
2019-03-20T07:59:22.468Z,102053.11
2019-03-20T08:01:54.135Z,102058.14
2019-03-20T08:04:25.128Z,102054.80
2019-03-20T08:06:57.508Z,102049.17
2019-03-20T08:09:28.538Z,102052.16
2019-03-20T08:11:58.800Z,102049.23
2019-03-20T08:14:33.473Z,102043.93
2019-03-20T08:17:06.248Z,102059.55
2019-03-20T08:19:37.105Z,102053.14
2019-03-20T08:22:09.653Z,102062.19
2019-03-20T08:24:45.080Z,102059.30
2019-03-20T08:27:15.431Z,102053.20
2019-03-20T08:29:47.118Z,102056.25
2019-03-20T08:32:17.992Z,102064.67
2019-03-20T08:34:49.225Z,102053.11
2019-03-20T08:37:20.320Z,102060.95
2019-03-20T08:39:52.511Z,102052.98
2019-03-20T08:42:25.070Z,102060.35
2019-03-20T08:44:55.617Z,102059.16
2019-03-20T08:47:27.327Z,102063.96
2019-03-20T08:49:58.004Z,102061.13
2019-03-20T08:52:29.061Z,102062.08
2019-03-20T08:55:01.890Z,102064.71
2019-03-20T08:57:34.483Z,102062.72
2019-03-20T09:00:05.503Z,102055.32
2019-03-20T09:02:36.246Z,102057.73
2019-03-20T09:05:08.838Z,102059.75
2019-03-20T09:07:47.424Z,102067.98
2019-03-20T09:10:19.097Z,102068.41
2019-03-20T09:12:51.634Z,102075.16
2019-03-20T09:15:23.185Z,102071.06
2019-03-20T09:17:54.858Z,102069.99
2019-03-20T09:20:26.608Z,102069.16
2019-03-20T09:22:57.227Z,102070.59
2019-03-20T09:25:27.702Z,102073.81
2019-03-20T09:27:59.830Z,102088.85
2019-03-20T09:30:32.695Z,102089.47
2019-03-20T09:33:05.808Z,102081.63
2019-03-20T09:35:37.157Z,102095.30
2019-03-20T09:38:16.432Z,102083.39
2019-03-20T09:40:47.633Z,102086.80
2019-03-20T09:43:18.874Z,102091.37
2019-03-20T09:45:56.882Z,102090.53
2019-03-20T09:48:26.826Z,102086.18
2019-03-20T09:51:09.316Z,102086.58
2019-03-20T09:53:39.811Z,102083.50
2019-03-20T09:56:11.485Z,102083.08
2019-03-20T09:58:43.124Z,102079.69
2019-03-20T10:01:17.903Z,102088.69
2019-03-20T10:03:50.270Z,102091.37
2019-03-20T10:06:30.105Z,102092.00
2019-03-20T10:09:02.014Z,102092.88
2019-03-20T10:11:33.176Z,102094.75
2019-03-20T10:14:03.863Z,102086.78
2019-03-20T10:16:38.601Z,102090.55
2019-03-20T10:19:11.090Z,102083.70
2019-03-20T10:21:42.658Z,102090.35
2019-03-20T10:24:15.175Z,102085.76
2019-03-20T10:26:46.070Z,102082.91
2019-03-20T10:29:18.637Z,102088.03
2019-03-20T10:31:50.228Z,102082.87
2019-03-20T10:34:20.741Z,102078.67
2019-03-20T10:36:53.300Z,102081.20
2019-03-20T10:39:23.886Z,102073.03
2019-03-20T10:41:54.662Z,102071.53
2019-03-20T10:44:25.414Z,102083.20
2019-03-20T10:46:59.332Z,102077.09
2019-03-20T10:49:29.654Z,102079.60
2019-03-20T10:52:02.307Z,102077.77
2019-03-20T10:54:36.951Z,102068.53
2019-03-20T10:57:07.615Z,102067.98
2019-03-20T10:59:37.998Z,102071.74
2019-03-20T11:02:08.353Z,102066.02
2019-03-20T11:04:43.840Z,102068.17
2019-03-20T11:07:16.215Z,102056.87
2019-03-20T11:09:47.936Z,102069.76
2019-03-20T11:12:18.708Z,102069.20
2019-03-20T11:14:50.087Z,102063.08
2019-03-20T11:17:21.040Z,102065.93
2019-03-20T11:22:43.981Z,102058.55
2019-03-20T11:25:18.105Z,102054.00
2019-03-20T11:27:49.126Z,102060.54
2019-03-20T11:30:26.412Z,102060.11
2019-03-20T11:32:57.756Z,102055.69
2019-03-20T11:35:30.121Z,102049.70
2019-03-20T11:38:04.832Z,102047.55
2019-03-20T11:40:36.547Z,102044.81
2019-03-20T11:43:08.138Z,102048.73
2019-03-20T11:45:44.030Z,102047.55
2019-03-20T11:48:26.197Z,102046.39
2019-03-20T11:50:56.881Z,102043.87
2019-03-20T11:53:27.705Z,102048.55
2019-03-20T11:55:58.013Z,102047.51
2019-03-20T11:58:29.669Z,102047.48
2019-03-20T12:01:01.715Z,102043.27
2019-03-20T12:03:34.465Z,102045.77
2019-03-20T12:06:05.506Z,102034.03
2019-03-20T12:08:37.672Z,102030.42
2019-03-20T12:11:08.285Z,102024.69
2019-03-20T12:13:38.737Z,102020.67
2019-03-20T12:16:08.926Z,102020.51
2019-03-20T12:18:40.684Z,102011.64
2019-03-20T12:21:13.271Z,102020.16
2019-03-20T12:23:44.463Z,102014.70
2019-03-20T12:26:14.599Z,102008.59
2019-03-20T12:28:45.132Z,102008.97
2019-03-20T12:31:18.084Z,102012.02
2019-03-20T12:33:48.274Z,101999.13
2019-03-20T12:36:20.865Z,102005.78
2019-03-20T12:38:56.344Z,101997.04
2019-03-20T12:41:27.646Z,101988.34
2019-03-20T12:43:57.919Z,101998.84
2019-03-20T12:46:40.964Z,101994.81
2019-03-20T12:49:01.542Z,101992.48
2019-03-20T12:51:35.408Z,101992.28
2019-03-20T12:54:07.694Z,101995.91
2019-03-20T12:56:38.451Z,101984.50
2019-03-20T12:59:08.719Z,101986.92
2019-03-20T13:01:38.963Z,101978.90
2019-03-20T13:04:09.388Z,101986.50
2019-03-20T13:06:39.786Z,101983.88
2019-03-20T13:09:11.037Z,101983.92
2019-03-20T13:11:41.259Z,101983.64
2019-03-20T13:14:11.356Z,101980.17
2019-03-20T13:16:43.290Z,101978.82
2019-03-20T13:19:14.109Z,101982.55
2019-03-20T13:21:44.290Z,101979.76
2019-03-20T13:24:14.537Z,101985.75
2019-03-20T13:26:45.328Z,101984.16
2019-03-20T13:29:15.467Z,101989.19
2019-03-20T13:31:45.720Z,101985.98
2019-03-20T13:34:15.725Z,101986.13
2019-03-20T13:36:46.369Z,101984.19
2019-03-20T13:39:16.439Z,101977.27
2019-03-20T13:41:46.780Z,101977.45
2019-03-20T13:44:16.941Z,101975.03
2019-03-20T13:46:47.591Z,101974.29
2019-03-20T13:49:18.245Z,101979.44
2019-03-20T13:51:49.046Z,101977.73
2019-03-20T13:54:19.372Z,101981.50
2019-03-20T13:56:51.892Z,101980.40
2019-03-20T13:59:22.672Z,101985.38
2019-03-20T14:01:53.258Z,101974.64
2019-03-20T14:04:24.597Z,101979.33
2019-03-20T14:06:56.428Z,101981.85
2019-03-20T14:09:27.430Z,101983.64
2019-03-20T14:11:57.491Z,101982.95
2019-03-20T14:14:27.751Z,101982.76
2019-03-20T14:16:58.587Z,101983.99
2019-03-20T14:19:29.419Z,101978.19
2019-03-20T14:22:00.260Z,101978.93
2019-03-20T14:24:30.969Z,101961.70
2019-03-20T14:27:01.376Z,101974.44
2019-03-20T14:29:31.752Z,101968.05
2019-03-20T14:32:02.673Z,101958.48
2019-03-20T14:34:34.870Z,101964.36
2019-03-20T14:37:11.866Z,101958.47
2019-03-20T14:39:43.231Z,101950.72
2019-03-20T14:42:13.559Z,101944.67
2019-03-20T14:44:47.136Z,101948.74
2019-03-20T14:47:17.696Z,101955.52
2019-03-20T14:49:49.948Z,101949.11
2019-03-20T14:52:26.881Z,101946.90
2019-03-20T14:54:56.339Z,101947.41
2019-03-20T14:57:26.712Z,101949.84
2019-03-20T14:59:58.474Z,101952.09
2019-03-20T15:02:29.165Z,101936.95
2019-03-20T15:05:01.113Z,101939.11
2019-03-20T15:07:35.184Z,101938.20
2019-03-20T15:10:06.008Z,101942.64
2019-03-20T15:12:36.997Z,101943.81
2019-03-20T15:15:13.317Z,101946.95
2019-03-20T15:17:43.743Z,101945.63
2019-03-20T15:20:15.857Z,101932.08
2019-03-20T15:22:46.628Z,101940.31
2019-03-20T15:25:18.608Z,101938.41
2019-03-20T15:27:49.152Z,101936.77
2019-03-20T15:30:19.499Z,101940.00
2019-03-20T15:32:49.862Z,101942.66
2019-03-20T15:35:20.218Z,101939.52
2019-03-20T15:37:52.897Z,101949.96
2019-03-20T15:40:23.872Z,101950.27
2019-03-20T15:42:55.525Z,101950.84
2019-03-20T15:45:25.959Z,101944.05
2019-03-20T15:47:56.635Z,101941.69
2019-03-20T15:50:27.846Z,101932.84
2019-03-20T15:52:58.576Z,101931.84
2019-03-20T15:55:30.494Z,101933.93
2019-03-20T15:58:01.911Z,101939.70
2019-03-20T16:00:33.571Z,101942.97
2019-03-20T16:03:06.931Z,101926.47
2019-03-20T16:05:38.313Z,101924.81
2019-03-20T16:08:08.964Z,101932.69
2019-03-20T16:10:39.865Z,101932.19
2019-03-20T16:13:12.596Z,101932.59
2019-03-20T16:15:46.125Z,101934.86
2019-03-20T16:18:16.840Z,101936.41
2019-03-20T16:20:47.146Z,101931.77
2019-03-20T16:23:17.467Z,101937.94
2019-03-20T16:25:47.717Z,101940.62
2019-03-20T16:28:18.231Z,101943.80
2019-03-20T16:30:48.942Z,101946.30
2019-03-20T16:33:19.253Z,101956.42
2019-03-20T16:35:49.669Z,101953.88
2019-03-20T16:38:23.535Z,101955.98
2019-03-20T16:40:56.305Z,101951.55
2019-03-20T16:43:26.704Z,101952.69
2019-03-20T16:45:57.048Z,101949.84
2019-03-20T16:48:28.201Z,101960.72
2019-03-20T16:50:59.127Z,101954.38
2019-03-20T16:53:29.969Z,101953.05
2019-03-20T16:56:00.264Z,101952.84
2019-03-20T16:58:30.519Z,101952.01
2019-03-20T17:01:01.240Z,101947.45
2019-03-20T17:03:31.678Z,101947.80
2019-03-20T17:06:01.922Z,101941.70
2019-03-20T17:08:32.843Z,101941.62
2019-03-20T17:11:03.213Z,101947.36
2019-03-20T17:13:34.599Z,101947.90
2019-03-20T17:16:05.316Z,101951.17
2019-03-20T17:18:36.346Z,101959.92
2019-03-20T17:21:07.160Z,101962.81
2019-03-20T17:23:37.449Z,101961.29
2019-03-20T17:26:07.698Z,101968.42
2019-03-20T17:28:38.050Z,101967.78
2019-03-20T17:31:10.202Z,101969.78
2019-03-20T17:33:40.499Z,101972.16
2019-03-20T17:36:10.708Z,101975.03
2019-03-20T17:38:40.928Z,101975.25
2019-03-20T17:41:11.521Z,101975.94
2019-03-20T17:43:41.891Z,101974.02
2019-03-20T17:46:12.447Z,101968.58
2019-03-20T17:48:44.671Z,101980.97
2019-03-20T17:51:15.251Z,101983.44
2019-03-20T17:53:45.733Z,101987.04
2019-03-20T17:56:16.429Z,101990.69
2019-03-20T17:58:46.704Z,101991.59
2019-03-20T18:01:17.821Z,102002.84
2019-03-20T18:03:48.106Z,102004.40
2019-03-20T18:06:20.690Z,101994.48
2019-03-20T18:08:51.153Z,101996.37
2019-03-20T18:11:21.761Z,101992.71
2019-03-20T18:13:52.193Z,101992.80
2019-03-20T18:16:23.842Z,101997.36
2019-03-20T18:18:54.226Z,102000.23
2019-03-20T18:21:24.496Z,102003.78
2019-03-20T18:23:54.817Z,102005.52
2019-03-20T18:26:28.276Z,102005.36
2019-03-20T18:28:59.127Z,102002.09
2019-03-20T18:31:29.830Z,102009.45
2019-03-20T18:34:00.067Z,102019.75
2019-03-20T18:36:30.386Z,102022.16
2019-03-20T18:39:00.685Z,102026.08
2019-03-20T18:41:31.803Z,102024.30
2019-03-20T18:44:02.516Z,102030.92
2019-03-20T18:46:34.835Z,102039.66
2019-03-20T18:49:05.719Z,102032.19
2019-03-20T18:51:36.118Z,102032.98
2019-03-20T18:54:11.301Z,102034.69
2019-03-20T18:56:47.181Z,102029.30
2019-03-20T18:59:18.035Z,102027.83
2019-03-20T19:01:48.575Z,102035.22
2019-03-20T19:04:19.150Z,102034.28
2019-03-20T19:06:49.817Z,102034.28
2019-03-20T19:09:21.037Z,102032.39
2019-03-20T19:11:51.790Z,102032.27
2019-03-20T19:14:22.012Z,102033.81
2019-03-20T19:16:52.481Z,102035.04
2019-03-20T19:19:22.635Z,102049.81
2019-03-20T19:21:53.118Z,102046.97
2019-03-20T19:24:31.177Z,102051.12
2019-03-20T19:27:07.269Z,102050.30
2019-03-20T19:29:38.104Z,102058.84
2019-03-20T19:32:08.947Z,102057.24
2019-03-20T19:34:40.038Z,102052.97
2019-03-20T19:37:11.608Z,102057.83
2019-03-20T19:39:42.001Z,102055.91
2019-03-20T19:42:20.033Z,102053.24
2019-03-20T19:44:44.917Z,102056.39
2019-03-20T19:47:15.406Z,102058.47
2019-03-20T19:49:46.197Z,102061.09
2019-03-20T19:52:16.368Z,102066.25
2019-03-20T19:54:47.268Z,102069.28
2019-03-20T19:57:18.008Z,102063.85
2019-03-20T19:59:50.836Z,102058.66
2019-03-20T20:02:22.228Z,102065.42
2019-03-20T20:04:53.813Z,102060.67
2019-03-20T20:07:24.592Z,102066.44
2019-03-20T20:09:55.438Z,102064.41
2019-03-20T20:12:31.174Z,102059.61
2019-03-20T20:14:59.454Z,102060.31
2019-03-20T20:17:30.484Z,102062.09
2019-03-20T20:20:02.386Z,102054.55
2019-03-20T20:22:33.236Z,102050.61
2019-03-20T20:25:04.601Z,102059.66
2019-03-20T20:27:35.630Z,102061.61
2019-03-20T20:30:06.337Z,102060.97
2019-03-20T20:32:37.964Z,102060.19
2019-03-20T20:35:09.611Z,102067.03
2019-03-20T20:37:42.688Z,102073.34
2019-03-20T20:40:15.363Z,102069.09
2019-03-20T20:42:47.700Z,102071.45
2019-03-20T20:45:18.507Z,102070.51
2019-03-20T20:47:52.052Z,102072.48
2019-03-20T20:50:22.515Z,102069.17
2019-03-20T20:52:53.207Z,102067.64
2019-03-20T20:55:23.681Z,102062.48
2019-03-20T20:57:57.736Z,102059.28
2019-03-20T21:00:28.781Z,102056.53
2019-03-20T21:02:59.142Z,102059.84
2019-03-20T21:05:29.930Z,102065.55
2019-03-20T21:08:01.790Z,102067.05
2019-03-20T21:10:32.988Z,102075.20
2019-03-20T21:13:21.294Z,102073.64
2019-03-20T21:16:30.114Z,102076.30
2019-03-20T21:19:39.158Z,102075.86
2019-03-20T21:22:49.710Z,102077.23
2019-03-20T21:25:25.349Z,102069.25
2019-03-20T21:28:58.633Z,102074.91
2019-03-20T21:32:00.123Z,102075.39
2019-03-20T21:35:12.482Z,102085.64
2019-03-20T21:38:13.526Z,102090.97
2019-03-20T21:41:36.284Z,102085.11
2019-03-20T21:44:51.726Z,102081.37
2019-03-20T21:47:38.421Z,102076.36
2019-03-20T21:50:43.592Z,102079.14
2019-03-20T21:53:17.577Z,102087.47
2019-03-20T21:56:39.475Z,102089.72
2019-03-20T21:59:59.080Z,102099.55
2019-03-20T22:02:49.886Z,102100.86
2019-03-20T22:05:30.701Z,102101.02
2019-03-20T22:08:01.718Z,102103.55
2019-03-20T22:11:14.473Z,102103.09
2019-03-20T22:14:01.103Z,102110.88
2019-03-20T22:17:26.949Z,102105.02
2019-03-20T22:20:22.479Z,102108.88
2019-03-20T22:23:19.987Z,102120.98
2019-03-20T22:26:46.465Z,102119.28
2019-03-20T22:29:32.651Z,102121.61
2019-03-20T22:32:33.005Z,102115.75
2019-03-20T22:35:30.146Z,102115.14
2019-03-20T22:38:03.027Z,102118.16
2019-03-20T22:41:08.739Z,102121.85
2019-03-20T22:44:02.047Z,102126.36
2019-03-20T22:47:08.779Z,102131.39
2019-03-20T22:50:08.964Z,102136.82
2019-03-20T22:53:14.272Z,102135.34
2019-03-20T22:56:19.521Z,102127.53
2019-03-20T22:58:50.433Z,102132.09
2019-03-20T23:01:38.160Z,102141.06
2019-03-20T23:04:31.141Z,102145.39
2019-03-20T23:07:02.625Z,102150.91
2019-03-20T23:09:33.965Z,102154.91
2019-03-20T23:12:08.295Z,102155.53
2019-03-20T23:14:39.133Z,102162.36
2019-03-20T23:17:10.053Z,102163.11
2019-03-20T23:19:42.487Z,102162.86
2019-03-20T23:22:13.791Z,102162.98
2019-03-20T23:24:45.434Z,102167.62
2019-03-20T23:27:20.018Z,102169.45
2019-03-20T23:29:51.248Z,102166.58
2019-03-20T23:32:22.783Z,102167.30
2019-03-20T23:34:57.373Z,102175.83
2019-03-20T23:37:29.548Z,102177.66
2019-03-20T23:40:01.014Z,102178.84
2019-03-20T23:42:45.581Z,102167.30
2019-03-20T23:45:18.102Z,102167.63
2019-03-20T23:48:21.456Z,102170.17
2019-03-20T23:50:57.779Z,102164.67
2019-03-20T23:53:29.893Z,102170.74
2019-03-20T23:56:00.819Z,102162.33
2019-03-20T23:58:34.945Z,102166.84
